Terminal Aerodrome Forecast
Issued by NWS Cleveland, OH

Home | Current Version | Previous Version | Text Only | Print | Product List | Glossary On
Versions: 1 2 3 4 5 6 7 8 9 10 11 12 13 14 15 16 17
408
FTUS41 KCLE 300536
TAFYNG
TAF
KYNG 300536Z 3006/0106 07010KT 6SM BR BKN070
     FM300900 10008KT 4SM BR OVC035
      TEMPO 3009/3012 BKN025
     FM301500 16012KT P6SM BKN070
     FM301800 19015G25KT P6SM BKN150=

USA.gov is the U.S. government's official web portal to all federal, state and local government web resources and services.